createdAt,value
2022-10-16T00:01:44.347Z,19.20
2022-10-16T00:04:11.708Z,19.20
2022-10-16T00:06:41.520Z,19.20
2022-10-16T00:09:11.331Z,19.20
2022-10-16T00:11:41.037Z,19.20
2022-10-16T00:14:12.038Z,19.20
2022-10-16T00:16:39.855Z,19.10
2022-10-16T00:19:07.272Z,19.10
2022-10-16T00:21:35.202Z,19.10
2022-10-16T00:24:05.969Z,19.10
2022-10-16T00:26:37.843Z,19.10
2022-10-16T00:29:05.919Z,19.10
2022-10-16T00:31:36.294Z,19.10
2022-10-16T00:34:03.982Z,19.10
2022-10-16T00:36:31.829Z,19.10
2022-10-16T00:41:36.236Z,19.00
2022-10-16T00:44:24.902Z,19.00
2022-10-16T00:46:52.644Z,19.00
2022-10-16T00:49:24.650Z,19.00
2022-10-16T00:51:54.980Z,19.00
2022-10-16T00:54:25.724Z,19.00
2022-10-16T00:56:54.691Z,18.90
2022-10-16T00:59:29.751Z,19.00
2022-10-16T01:01:58.486Z,18.90
2022-10-16T01:04:27.740Z,18.90
2022-10-16T01:07:02.587Z,19.00
2022-10-16T01:09:45.567Z,18.90
2022-10-16T01:12:20.755Z,18.90
2022-10-16T01:15:10.162Z,18.90
2022-10-16T01:17:48.871Z,18.90
2022-10-16T01:20:23.611Z,18.90
2022-10-16T01:22:58.487Z,18.80
2022-10-16T01:25:59.784Z,18.80
2022-10-16T01:28:35.391Z,18.80
2022-10-16T01:31:03.676Z,18.80
2022-10-16T01:33:47.642Z,18.80
2022-10-16T01:36:19.581Z,18.80
2022-10-16T01:38:50.814Z,18.80
2022-10-16T01:41:25.929Z,18.80
2022-10-16T01:44:33.715Z,18.80
2022-10-16T01:47:01.823Z,18.70
2022-10-16T01:49:33.376Z,18.80
2022-10-16T01:52:03.054Z,18.80
2022-10-16T01:54:33.836Z,18.80
2022-10-16T01:57:02.551Z,18.80
2022-10-16T01:59:34.185Z,18.80
2022-10-16T02:02:02.272Z,18.70
2022-10-16T02:04:36.699Z,18.70
2022-10-16T02:07:04.393Z,18.80
2022-10-16T02:09:34.599Z,18.70
2022-10-16T02:12:09.286Z,18.70
2022-10-16T02:14:40.288Z,18.60
2022-10-16T02:17:19.023Z,18.70
2022-10-16T02:19:48.818Z,18.60
2022-10-16T02:22:24.067Z,18.60
2022-10-16T02:25:29.207Z,18.60
2022-10-16T02:27:59.361Z,18.60
2022-10-16T02:30:30.644Z,18.60
2022-10-16T02:33:01.437Z,18.60
2022-10-16T02:35:29.472Z,18.60
2022-10-16T02:37:58.268Z,18.60
2022-10-16T02:40:27.241Z,18.60
2022-10-16T02:42:58.617Z,18.60
2022-10-16T02:45:28.392Z,18.60
2022-10-16T02:47:58.060Z,18.60
2022-10-16T02:50:26.155Z,18.50
2022-10-16T02:52:53.542Z,18.50
2022-10-16T02:55:23.256Z,18.50
2022-10-16T02:57:50.506Z,18.50
2022-10-16T03:00:18.829Z,18.50
2022-10-16T03:02:48.473Z,18.50
2022-10-16T03:05:16.302Z,18.40
2022-10-16T03:07:43.635Z,18.50
2022-10-16T03:10:10.893Z,18.40
2022-10-16T03:12:38.251Z,18.40
2022-10-16T03:15:06.145Z,18.40
2022-10-16T03:17:33.996Z,18.40
2022-10-16T03:20:01.231Z,18.40
2022-10-16T03:22:30.970Z,18.40
2022-10-16T03:25:00.579Z,18.40
2022-10-16T03:27:30.382Z,18.40
2022-10-16T03:29:57.657Z,18.40
2022-10-16T03:32:26.273Z,18.40
2022-10-16T03:34:58.281Z,18.40
2022-10-16T03:37:26.103Z,18.40
2022-10-16T03:39:54.062Z,18.30
2022-10-16T03:42:23.886Z,18.40
2022-10-16T03:44:51.164Z,18.30
2022-10-16T03:47:22.849Z,18.30
2022-10-16T03:49:51.026Z,18.30
2022-10-16T03:52:20.799Z,18.30
2022-10-16T03:54:48.146Z,18.30
2022-10-16T03:57:18.263Z,18.30
2022-10-16T03:59:45.744Z,18.30
2022-10-16T04:02:13.168Z,18.30
2022-10-16T04:04:42.863Z,18.30
2022-10-16T04:07:10.211Z,18.30
2022-10-16T04:09:37.707Z,18.20
2022-10-16T04:12:07.349Z,18.30
2022-10-16T04:14:35.145Z,18.20
2022-10-16T04:17:02.421Z,18.30
2022-10-16T04:19:32.041Z,18.20
2022-10-16T04:21:59.317Z,18.20
2022-10-16T04:24:29.034Z,18.20
2022-10-16T04:26:56.321Z,18.20
2022-10-16T04:29:23.580Z,18.20
2022-10-16T04:31:53.119Z,18.20
2022-10-16T04:34:20.354Z,18.20
2022-10-16T04:36:50.766Z,18.20
2022-10-16T04:39:18.091Z,18.20
2022-10-16T04:41:45.380Z,18.20
2022-10-16T04:44:12.646Z,18.20
2022-10-16T04:46:39.918Z,18.20
2022-10-16T04:49:07.205Z,18.10
2022-10-16T04:51:34.578Z,18.10
2022-10-16T04:54:01.805Z,18.10
2022-10-16T04:56:31.888Z,18.10
2022-10-16T04:58:59.289Z,18.10
2022-10-16T05:01:26.605Z,18.10
2022-10-16T05:04:03.322Z,18.10
2022-10-16T05:06:33.259Z,18.10
2022-10-16T05:09:02.983Z,18.10
2022-10-16T05:11:30.261Z,18.10
2022-10-16T05:14:00.327Z,18.10
2022-10-16T05:16:27.720Z,18.10
2022-10-16T05:19:00.033Z,18.10
2022-10-16T05:21:39.716Z,18.10
2022-10-16T05:24:10.253Z,18.10
2022-10-16T05:26:37.533Z,18.00
2022-10-16T05:29:09.180Z,18.00
2022-10-16T05:31:36.670Z,18.10
2022-10-16T05:34:06.368Z,18.10
2022-10-16T05:36:33.689Z,18.10
2022-10-16T05:39:00.923Z,18.10
2022-10-16T05:41:28.256Z,18.00
2022-10-16T05:43:55.631Z,18.00
2022-10-16T05:46:22.939Z,18.00
2022-10-16T05:48:54.231Z,18.00
2022-10-16T05:51:21.575Z,18.00
2022-10-16T05:53:48.849Z,18.00
2022-10-16T05:56:16.749Z,18.00
2022-10-16T05:58:45.557Z,18.00
2022-10-16T06:01:18.233Z,18.00
2022-10-16T06:03:46.107Z,18.00
2022-10-16T06:06:24.106Z,18.00
2022-10-16T06:08:58.852Z,18.00
2022-10-16T06:11:29.093Z,18.00
2022-10-16T06:14:02.748Z,18.00
2022-10-16T06:16:30.371Z,18.00
2022-10-16T06:18:57.715Z,18.00
2022-10-16T06:21:26.897Z,18.00
2022-10-16T06:23:57.172Z,18.00
2022-10-16T06:26:29.237Z,18.00
2022-10-16T06:28:57.674Z,18.00
2022-10-16T06:31:28.620Z,18.00
2022-10-16T06:33:57.133Z,18.00
2022-10-16T06:36:25.684Z,18.00
2022-10-16T06:38:55.567Z,18.00
2022-10-16T06:41:24.064Z,18.00
2022-10-16T06:43:53.234Z,18.00
2022-10-16T06:46:23.943Z,18.00
2022-10-16T06:48:51.468Z,18.00
2022-10-16T06:51:23.409Z,18.00
2022-10-16T06:54:04.001Z,18.00
2022-10-16T06:56:34.709Z,18.00
2022-10-16T06:59:02.751Z,18.00
2022-10-16T07:01:30.622Z,18.10
2022-10-16T07:03:58.338Z,18.00
2022-10-16T07:06:27.655Z,18.00
2022-10-16T07:08:55.109Z,18.00
2022-10-16T07:11:24.605Z,18.10
2022-10-16T07:13:55.065Z,18.00
2022-10-16T07:16:28.769Z,18.10
2022-10-16T07:19:01.024Z,18.10
2022-10-16T07:21:36.886Z,18.10
2022-10-16T07:24:06.463Z,18.10
2022-10-16T07:26:36.033Z,18.10
2022-10-16T07:29:04.656Z,18.10
2022-10-16T07:31:34.553Z,18.10
2022-10-16T07:34:02.102Z,18.20
2022-10-16T07:36:31.701Z,18.20
2022-10-16T07:39:01.422Z,18.20
2022-10-16T07:41:33.836Z,18.20
2022-10-16T07:44:01.619Z,18.20
2022-10-16T07:46:29.648Z,18.20
2022-10-16T07:48:56.923Z,18.20
2022-10-16T07:51:25.925Z,18.30
2022-10-16T07:53:55.866Z,18.30
2022-10-16T07:56:23.820Z,18.30
2022-10-16T07:58:54.297Z,18.40
2022-10-16T08:01:26.657Z,18.40
2022-10-16T08:03:56.689Z,18.40
2022-10-16T08:06:27.665Z,18.40
2022-10-16T08:09:00.966Z,18.50
2022-10-16T08:11:30.741Z,18.50
2022-10-16T08:14:00.384Z,18.60
2022-10-16T08:16:27.609Z,18.60
2022-10-16T08:18:57.266Z,18.60
2022-10-16T08:21:24.918Z,18.70
2022-10-16T08:23:58.064Z,18.70
2022-10-16T08:26:27.333Z,18.80
2022-10-16T08:28:55.266Z,18.80
2022-10-16T08:31:23.336Z,18.80
2022-10-16T08:33:54.228Z,18.80
2022-10-16T08:36:21.761Z,18.80
2022-10-16T08:38:50.907Z,18.90
2022-10-16T08:41:41.635Z,18.90
2022-10-16T08:44:57.226Z,18.90
2022-10-16T08:47:36.839Z,18.90
2022-10-16T08:50:12.540Z,19.00
2022-10-16T08:52:42.472Z,19.00
2022-10-16T08:55:33.424Z,19.00
2022-10-16T08:58:01.626Z,19.00
2022-10-16T09:00:29.684Z,19.00
2022-10-16T09:03:18.913Z,19.10
2022-10-16T09:06:06.393Z,19.10
2022-10-16T09:08:42.053Z,19.10
2022-10-16T09:11:40.677Z,19.20
2022-10-16T09:14:37.478Z,19.10
2022-10-16T09:17:16.101Z,19.20
2022-10-16T09:19:55.796Z,19.30
2022-10-16T09:22:30.124Z,19.30
2022-10-16T09:25:11.079Z,19.40
2022-10-16T09:27:41.105Z,19.50
2022-10-16T09:30:20.668Z,19.60
2022-10-16T09:32:52.734Z,19.70
2022-10-16T09:35:27.667Z,19.80
2022-10-16T09:37:55.996Z,19.90
2022-10-16T09:40:32.645Z,19.90
2022-10-16T09:43:35.161Z,20.00
2022-10-16T09:46:06.093Z,20.10
2022-10-16T09:48:45.166Z,20.20
2022-10-16T09:51:25.204Z,20.30
2022-10-16T09:54:03.038Z,20.40
2022-10-16T09:56:39.705Z,20.50
2022-10-16T09:59:14.255Z,20.60
2022-10-16T10:01:51.811Z,20.60
2022-10-16T10:04:24.074Z,20.80
2022-10-16T10:06:59.169Z,20.90
2022-10-16T10:09:32.398Z,21.00
2022-10-16T10:12:06.323Z,21.10
2022-10-16T10:14:39.547Z,21.20
2022-10-16T10:17:08.934Z,21.30
2022-10-16T10:19:40.086Z,21.30
2022-10-16T10:22:28.061Z,21.40
2022-10-16T10:25:04.650Z,21.50
2022-10-16T10:27:40.467Z,21.60
2022-10-16T10:30:13.358Z,21.70
2022-10-16T10:32:48.591Z,21.70
2022-10-16T10:35:28.386Z,21.90
2022-10-16T10:38:04.620Z,21.90
2022-10-16T10:40:34.755Z,22.00
2022-10-16T10:43:19.420Z,22.10
2022-10-16T10:45:48.685Z,22.10
2022-10-16T10:48:45.099Z,22.10
2022-10-16T10:52:00.164Z,22.20
2022-10-16T10:54:49.536Z,22.30
2022-10-16T10:57:27.264Z,22.40
2022-10-16T11:00:00.889Z,22.40
2022-10-16T11:03:00.752Z,22.50
2022-10-16T11:05:42.651Z,22.50
2022-10-16T11:08:24.504Z,22.60
2022-10-16T11:10:59.725Z,22.70
2022-10-16T11:13:38.632Z,22.70
2022-10-16T11:16:41.700Z,22.80
2022-10-16T11:19:30.495Z,22.80
2022-10-16T11:22:20.911Z,22.90
2022-10-16T11:25:14.599Z,23.00
2022-10-16T11:27:56.699Z,23.00
2022-10-16T11:30:27.218Z,23.10
2022-10-16T11:33:20.506Z,23.10
2022-10-16T11:36:01.655Z,23.10
2022-10-16T11:38:46.774Z,23.10
2022-10-16T11:41:38.772Z,23.20
2022-10-16T11:44:27.780Z,23.20
2022-10-16T11:47:46.403Z,23.20
2022-10-16T11:50:39.728Z,23.10
2022-10-16T11:53:51.388Z,23.20
2022-10-16T11:56:25.250Z,23.20
2022-10-16T11:59:01.543Z,23.30
2022-10-16T12:01:57.753Z,23.30
2022-10-16T12:04:46.241Z,23.30
2022-10-16T12:07:19.411Z,23.40
2022-10-16T12:09:46.697Z,23.40
2022-10-16T12:12:36.972Z,23.40
2022-10-16T12:15:29.770Z,23.50
2022-10-16T12:18:25.721Z,23.60
2022-10-16T12:21:08.743Z,23.70
2022-10-16T12:23:48.550Z,23.70
2022-10-16T12:26:28.846Z,23.70
2022-10-16T12:28:57.214Z,23.80
2022-10-16T12:31:25.261Z,23.80
2022-10-16T12:34:04.798Z,23.80
2022-10-16T12:36:36.266Z,23.80
2022-10-16T12:39:03.820Z,23.80
2022-10-16T12:41:40.803Z,23.90
2022-10-16T12:44:27.342Z,23.90
2022-10-16T12:46:54.685Z,23.90
2022-10-16T12:49:34.200Z,23.90
2022-10-16T12:52:01.488Z,23.90
2022-10-16T12:54:31.288Z,23.80
2022-10-16T12:57:26.827Z,23.80
2022-10-16T12:59:57.162Z,23.80
2022-10-16T13:02:56.051Z,23.80
2022-10-16T13:05:38.072Z,23.80
2022-10-16T13:08:26.979Z,23.80
2022-10-16T13:11:00.622Z,23.70
2022-10-16T13:13:49.201Z,23.70
2022-10-16T13:16:19.566Z,23.70
2022-10-16T13:19:04.763Z,23.70
2022-10-16T13:21:56.545Z,23.70
2022-10-16T13:25:02.605Z,23.60
2022-10-16T13:27:53.388Z,23.60
2022-10-16T13:30:30.831Z,23.60
2022-10-16T13:33:21.988Z,23.60
2022-10-16T13:35:52.273Z,23.60
2022-10-16T13:38:28.277Z,23.60
2022-10-16T13:41:07.047Z,23.60
2022-10-16T13:43:50.738Z,23.60
2022-10-16T13:46:22.897Z,23.60
2022-10-16T13:48:59.991Z,23.60
2022-10-16T13:51:27.990Z,23.60
2022-10-16T13:53:58.133Z,23.60
2022-10-16T13:56:33.422Z,23.60
2022-10-16T13:59:22.932Z,23.60
2022-10-16T14:01:52.730Z,23.60
2022-10-16T14:04:20.034Z,23.60
2022-10-16T14:06:53.075Z,23.60
2022-10-16T14:09:28.131Z,23.60
2022-10-16T14:12:11.091Z,23.60
2022-10-16T14:14:50.333Z,23.60
2022-10-16T14:17:19.674Z,23.60
2022-10-16T14:19:57.776Z,23.60
2022-10-16T14:22:42.736Z,23.60
2022-10-16T14:25:24.828Z,23.50
2022-10-16T14:28:24.331Z,23.60
2022-10-16T14:30:58.795Z,23.50
2022-10-16T14:33:37.661Z,23.50
2022-10-16T14:36:14.618Z,23.50
2022-10-16T14:38:58.382Z,23.50
2022-10-16T14:41:25.842Z,23.50
2022-10-16T14:43:57.694Z,23.50
2022-10-16T14:46:35.931Z,23.50
2022-10-16T14:49:11.968Z,23.50
2022-10-16T14:51:45.769Z,23.50
2022-10-16T14:54:16.517Z,23.50
2022-10-16T14:56:58.483Z,23.50
2022-10-16T14:59:45.140Z,23.50
2022-10-16T15:02:32.499Z,23.40
2022-10-16T15:05:12.358Z,23.40
2022-10-16T15:07:42.030Z,23.40
2022-10-16T15:10:09.593Z,23.50
2022-10-16T15:12:36.976Z,23.40
2022-10-16T15:15:26.875Z,23.40
2022-10-16T15:17:59.484Z,23.40
2022-10-16T15:20:28.912Z,23.40
2022-10-16T15:22:56.204Z,23.40
2022-10-16T15:25:48.859Z,23.40
2022-10-16T15:28:19.748Z,23.30
2022-10-16T15:30:49.825Z,23.30
2022-10-16T15:33:20.068Z,23.30
2022-10-16T15:35:49.138Z,23.20
2022-10-16T15:38:20.455Z,23.20
2022-10-16T15:40:49.342Z,23.20
2022-10-16T15:43:16.756Z,23.20
2022-10-16T15:45:46.492Z,23.20
2022-10-16T15:48:14.710Z,23.10
2022-10-16T15:53:13.896Z,23.10
2022-10-16T15:55:41.173Z,23.10
2022-10-16T15:58:10.701Z,23.10
2022-10-16T16:00:38.633Z,23.10
2022-10-16T16:03:05.995Z,23.00
2022-10-16T16:05:34.367Z,23.00
2022-10-16T16:08:01.643Z,23.00
2022-10-16T16:10:28.883Z,23.00
2022-10-16T16:12:56.217Z,22.90
2022-10-16T16:15:25.135Z,22.90
2022-10-16T16:17:52.404Z,22.80
2022-10-16T16:20:19.780Z,22.80
2022-10-16T16:22:49.330Z,22.80
2022-10-16T16:25:16.583Z,22.80
2022-10-16T16:27:43.974Z,22.70
2022-10-16T16:30:18.420Z,22.70
2022-10-16T16:32:47.720Z,22.60
2022-10-16T16:35:17.484Z,22.60
2022-10-16T16:37:47.666Z,22.60
2022-10-16T16:40:15.057Z,22.50
2022-10-16T16:42:42.301Z,22.50
2022-10-16T16:45:12.783Z,22.50
2022-10-16T16:47:40.033Z,22.40
2022-10-16T16:50:08.065Z,22.40
2022-10-16T16:52:38.026Z,22.40
2022-10-16T16:55:05.699Z,22.30
2022-10-16T16:57:33.019Z,22.30
2022-10-16T17:00:02.547Z,22.30
2022-10-16T17:02:29.810Z,22.20
2022-10-16T17:04:58.443Z,22.20
2022-10-16T17:07:27.956Z,22.20
2022-10-16T17:09:55.395Z,22.10
2022-10-16T17:12:22.713Z,22.10
2022-10-16T17:14:53.713Z,22.10
2022-10-16T17:17:21.102Z,22.10
2022-10-16T17:19:51.306Z,22.00
2022-10-16T17:22:19.943Z,22.00
2022-10-16T17:24:52.189Z,22.00
2022-10-16T17:27:19.773Z,22.00
2022-10-16T17:29:51.316Z,22.00
2022-10-16T17:32:20.677Z,21.90
2022-10-16T17:34:50.296Z,21.90
2022-10-16T17:37:20.265Z,21.90
2022-10-16T17:39:50.844Z,21.90
2022-10-16T17:42:18.174Z,21.80
2022-10-16T17:44:47.690Z,21.80
2022-10-16T17:47:15.047Z,21.80
2022-10-16T17:49:44.772Z,21.80
2022-10-16T17:52:12.272Z,21.70
2022-10-16T17:54:40.819Z,21.70
2022-10-16T17:57:10.377Z,21.70
2022-10-16T17:59:40.240Z,21.70
2022-10-16T18:02:09.228Z,21.70
2022-10-16T18:04:36.916Z,21.70
2022-10-16T18:07:06.798Z,21.70
2022-10-16T18:09:34.208Z,21.60
2022-10-16T18:12:01.643Z,21.60
2022-10-16T18:14:35.433Z,21.60
2022-10-16T18:17:02.685Z,21.60
2022-10-16T18:19:32.331Z,21.50
2022-10-16T18:21:59.732Z,21.50
2022-10-16T18:24:27.558Z,21.50
2022-10-16T18:26:57.514Z,21.50
2022-10-16T18:29:26.560Z,21.40
2022-10-16T18:31:54.628Z,21.40
2022-10-16T18:34:26.838Z,21.40
2022-10-16T18:36:55.217Z,21.40
2022-10-16T18:39:24.843Z,21.40
2022-10-16T18:41:55.188Z,21.30
2022-10-16T18:44:22.565Z,21.30
2022-10-16T18:46:51.117Z,21.30
2022-10-16T18:49:18.715Z,21.30
2022-10-16T18:51:48.649Z,21.20
2022-10-16T18:54:16.097Z,21.30
2022-10-16T18:56:43.374Z,21.20
2022-10-16T18:59:10.818Z,21.20
2022-10-16T19:01:40.723Z,21.20
2022-10-16T19:04:11.057Z,21.20
2022-10-16T19:06:42.825Z,21.10
2022-10-16T19:09:13.962Z,21.20
2022-10-16T19:11:42.183Z,21.10
2022-10-16T19:14:13.528Z,21.10
2022-10-16T19:16:43.047Z,21.10
2022-10-16T19:19:16.035Z,21.10
2022-10-16T19:21:43.697Z,21.10
2022-10-16T19:24:14.521Z,21.10
2022-10-16T19:26:42.623Z,21.00
2022-10-16T19:29:11.236Z,21.00
2022-10-16T19:31:38.530Z,21.00
2022-10-16T19:34:09.779Z,21.00
2022-10-16T19:36:39.082Z,21.00
2022-10-16T19:39:12.838Z,21.00
2022-10-16T19:41:40.690Z,20.90
2022-10-16T19:44:12.472Z,20.90
2022-10-16T19:46:39.707Z,20.90
2022-10-16T19:49:10.071Z,20.90
2022-10-16T19:51:40.672Z,20.80
2022-10-16T19:54:12.415Z,20.90
2022-10-16T19:56:42.650Z,20.80
2022-10-16T19:59:13.452Z,20.80
2022-10-16T20:01:43.621Z,20.80
2022-10-16T20:04:14.394Z,20.80
2022-10-16T20:06:41.778Z,20.80
2022-10-16T20:09:09.396Z,20.80
2022-10-16T20:11:37.285Z,20.80
2022-10-16T20:14:08.077Z,20.70
2022-10-16T20:16:35.623Z,20.70
2022-10-16T20:19:05.844Z,20.70
2022-10-16T20:21:35.012Z,20.70
2022-10-16T20:24:05.109Z,20.70
2022-10-16T20:26:33.332Z,20.70
2022-10-16T20:29:00.726Z,20.70
2022-10-16T20:31:30.463Z,20.70
2022-10-16T20:34:01.957Z,20.70
2022-10-16T20:36:30.719Z,20.60
2022-10-16T20:38:57.993Z,20.70
2022-10-16T20:41:29.803Z,20.70
2022-10-16T20:43:57.100Z,20.60
2022-10-16T20:46:28.907Z,20.60
2022-10-16T20:49:05.938Z,20.60
2022-10-16T20:51:49.852Z,20.60
2022-10-16T20:54:17.324Z,20.60
2022-10-16T20:56:46.939Z,20.50
2022-10-16T20:59:14.454Z,20.50
2022-10-16T21:01:41.892Z,20.50
2022-10-16T21:04:09.944Z,20.50
2022-10-16T21:06:39.171Z,20.50
2022-10-16T21:09:07.876Z,20.40
2022-10-16T21:11:37.264Z,20.40
2022-10-16T21:14:06.527Z,20.40
2022-10-16T21:16:36.809Z,20.30
2022-10-16T21:19:04.987Z,20.30
2022-10-16T21:21:39.284Z,20.30
2022-10-16T21:24:10.917Z,20.30
2022-10-16T21:26:43.460Z,20.30
2022-10-16T21:29:11.705Z,20.30
2022-10-16T21:31:39.413Z,20.20
2022-10-16T21:34:09.183Z,20.20
2022-10-16T21:36:40.920Z,20.20
2022-10-16T21:39:11.458Z,20.20
2022-10-16T21:41:39.387Z,20.20
2022-10-16T21:44:07.022Z,20.10
2022-10-16T21:46:37.045Z,20.10
2022-10-16T21:49:10.122Z,20.10
2022-10-16T21:51:40.355Z,20.10
2022-10-16T21:54:10.450Z,20.10
2022-10-16T21:56:38.666Z,20.10
2022-10-16T21:59:06.608Z,20.00
2022-10-16T22:01:34.151Z,20.00
2022-10-16T22:04:01.492Z,20.00
2022-10-16T22:06:31.533Z,20.00
2022-10-16T22:09:04.809Z,20.00
2022-10-16T22:11:37.177Z,20.00
2022-10-16T22:14:14.032Z,19.90
2022-10-16T22:16:42.258Z,19.90
2022-10-16T22:19:11.073Z,19.90
2022-10-16T22:21:42.294Z,19.90
2022-10-16T22:24:10.007Z,19.80
2022-10-16T22:26:38.697Z,19.80
2022-10-16T22:29:06.727Z,19.80
2022-10-16T22:31:34.972Z,19.80
2022-10-16T22:34:07.936Z,19.80
2022-10-16T22:36:37.703Z,19.70
2022-10-16T22:39:05.612Z,19.70
2022-10-16T22:41:32.949Z,19.70
2022-10-16T22:44:02.666Z,19.70
2022-10-16T22:46:31.331Z,19.60
2022-10-16T22:49:01.094Z,19.60
2022-10-16T22:51:35.680Z,19.60
2022-10-16T22:54:02.967Z,19.60
2022-10-16T22:56:32.595Z,19.60
2022-10-16T22:58:59.833Z,19.60
2022-10-16T23:01:36.916Z,19.60
2022-10-16T23:04:07.187Z,19.50
2022-10-16T23:06:35.386Z,19.50
2022-10-16T23:09:04.980Z,19.50
2022-10-16T23:11:34.745Z,19.50
2022-10-16T23:14:02.063Z,19.50
2022-10-16T23:16:32.265Z,19.40
2022-10-16T23:18:59.753Z,19.40
2022-10-16T23:21:27.365Z,19.40
2022-10-16T23:23:55.313Z,19.40
2022-10-16T23:26:25.435Z,19.40
2022-10-16T23:28:55.196Z,19.30
2022-10-16T23:31:22.583Z,19.40
2022-10-16T23:33:50.212Z,19.30
2022-10-16T23:36:19.827Z,19.30
2022-10-16T23:38:48.483Z,19.30
2022-10-16T23:41:16.802Z,19.30
2022-10-16T23:43:44.149Z,19.30
2022-10-16T23:46:12.758Z,19.20
2022-10-16T23:48:40.589Z,19.20
2022-10-16T23:51:11.245Z,19.20
2022-10-16T23:53:40.909Z,19.20
2022-10-16T23:56:08.718Z,19.20
2022-10-16T23:58:36.717Z,19.20
